createdAt,value
2022-08-23T00:00:01.195Z,100107.34
2022-08-23T00:05:31.428Z,100105.33
2022-08-23T00:10:34.412Z,100104.77
2022-08-23T00:15:37.895Z,100103.87
2022-08-23T00:20:40.633Z,100108.71
2022-08-23T00:25:43.934Z,100109.94
2022-08-23T00:30:46.713Z,100103.88
2022-08-23T00:35:49.978Z,100103.41
2022-08-23T00:40:53.933Z,100101.48
2022-08-23T00:46:33.574Z,100100.88
2022-08-23T00:51:57.765Z,100099.78
2022-08-23T00:57:05.672Z,100092.54
2022-08-23T01:02:09.956Z,100090.58
2022-08-23T01:07:19.609Z,100092.57
2022-08-23T01:12:35.516Z,100093.05
2022-08-23T01:17:46.573Z,100094.36
2022-08-23T01:22:59.018Z,100096.27
2022-08-23T01:28:01.991Z,100099.64
2022-08-23T01:33:07.426Z,100105.59
2022-08-23T01:38:11.685Z,100096.98
2022-08-23T01:43:15.509Z,100101.44
2022-08-23T01:48:18.907Z,100109.55
2022-08-23T01:53:21.578Z,100114.15
2022-08-23T01:58:24.781Z,100114.89
2022-08-23T02:03:29.718Z,100120.75
2022-08-23T02:08:52.463Z,100123.74
2022-08-23T02:13:58.934Z,100123.00
2022-08-23T02:19:06.078Z,100125.40
2022-08-23T02:24:22.086Z,100125.50
2022-08-23T02:29:29.671Z,100132.30
2022-08-23T02:34:32.544Z,100129.52
2022-08-23T02:39:38.774Z,100125.05
2022-08-23T02:44:42.102Z,100125.28
2022-08-23T02:49:44.858Z,100130.00
2022-08-23T02:54:50.589Z,100135.55
2022-08-23T02:59:56.016Z,100138.46
2022-08-23T03:04:59.319Z,100136.91
2022-08-23T03:10:02.476Z,100141.82
2022-08-23T03:15:06.889Z,100150.33
2022-08-23T03:20:11.241Z,100156.52
2022-08-23T03:25:13.925Z,100155.98
2022-08-23T03:30:19.935Z,100153.73
2022-08-23T03:35:23.022Z,100150.48
2022-08-23T03:40:26.114Z,100143.34
2022-08-23T03:45:29.759Z,100146.22
2022-08-23T03:50:32.533Z,100146.98
2022-08-23T03:55:38.502Z,100148.42
2022-08-23T04:00:45.320Z,100151.83
2022-08-23T04:05:48.548Z,100156.96
2022-08-23T04:10:51.304Z,100160.77
2022-08-23T04:15:55.231Z,100153.34
2022-08-23T04:21:01.517Z,100151.30
2022-08-23T04:26:05.923Z,100140.95
2022-08-23T04:31:12.556Z,100133.22
2022-08-23T04:36:15.281Z,100137.43
2022-08-23T04:41:37.591Z,100138.68
2022-08-23T04:46:40.917Z,100135.25
2022-08-23T04:51:43.829Z,100139.67
2022-08-23T04:56:56.682Z,100140.13
2022-08-23T05:01:59.489Z,100142.79
2022-08-23T05:07:02.701Z,100142.98
2022-08-23T05:12:05.794Z,100145.96
2022-08-23T05:17:08.509Z,100151.83
2022-08-23T05:22:12.537Z,100140.14
2022-08-23T05:27:16.186Z,100131.61
2022-08-23T05:32:19.160Z,100124.30
2022-08-23T05:37:21.913Z,100130.55
2022-08-23T05:42:24.705Z,100152.67
2022-08-23T05:47:28.279Z,100163.09
2022-08-23T05:52:36.678Z,100182.35
2022-08-23T05:57:39.674Z,100185.52
2022-08-23T06:02:43.084Z,100185.98
2022-08-23T06:07:45.863Z,100188.59
2022-08-23T06:12:49.108Z,100184.49
2022-08-23T06:17:51.883Z,100187.81
2022-08-23T06:22:54.662Z,100198.83
2022-08-23T06:27:58.892Z,100203.73
2022-08-23T06:33:02.956Z,100206.67
2022-08-23T06:38:06.966Z,100211.09
2022-08-23T06:43:09.968Z,100213.63
2022-08-23T06:48:17.022Z,100210.05
2022-08-23T06:53:21.453Z,100217.58
2022-08-23T06:58:25.422Z,100222.59
2022-08-23T07:03:28.655Z,100232.86
2022-08-23T07:08:31.452Z,100238.89
2022-08-23T07:13:34.605Z,100241.74
2022-08-23T07:18:37.680Z,100242.23
2022-08-23T07:23:42.836Z,100239.10
2022-08-23T07:28:50.334Z,100243.96
2022-08-23T07:33:58.859Z,100242.71
2022-08-23T07:39:04.549Z,100241.88
2022-08-23T07:44:10.186Z,100242.75
2022-08-23T07:49:13.672Z,100252.05
2022-08-23T07:54:18.376Z,100249.41
2022-08-23T07:59:21.087Z,100251.59
2022-08-23T08:04:23.765Z,100255.08
2022-08-23T08:09:26.611Z,100252.29
2022-08-23T08:14:29.718Z,100250.25
2022-08-23T08:19:32.521Z,100251.23
2022-08-23T08:24:35.795Z,100252.99
2022-08-23T08:29:38.695Z,100248.45
2022-08-23T08:34:42.122Z,100252.84
2022-08-23T08:39:48.013Z,100256.95
2022-08-23T08:45:05.656Z,100260.39
2022-08-23T08:50:14.562Z,100261.48
2022-08-23T08:55:32.077Z,100258.46
2022-08-23T09:00:39.237Z,100252.84
2022-08-23T09:05:56.393Z,100255.30
2022-08-23T09:11:24.157Z,100248.00
2022-08-23T09:16:41.819Z,100248.06
2022-08-23T09:21:49.776Z,100247.04
2022-08-23T09:26:54.034Z,100239.00
2022-08-23T09:32:02.344Z,100240.55
2022-08-23T09:37:18.009Z,100239.44
2022-08-23T09:42:35.982Z,100235.56
2022-08-23T09:47:44.869Z,100229.87
2022-08-23T09:52:48.741Z,100221.09
2022-08-23T09:57:52.108Z,100212.53
2022-08-23T10:02:57.997Z,100209.02
2022-08-23T10:08:02.624Z,100208.14
2022-08-23T10:13:06.240Z,100204.66
2022-08-23T10:18:29.081Z,100200.91
2022-08-23T10:23:56.427Z,100201.02
2022-08-23T10:29:23.254Z,100200.74
2022-08-23T10:34:31.748Z,100193.64
2022-08-23T10:40:03.518Z,100191.17
2022-08-23T10:45:30.586Z,100188.75
2022-08-23T10:50:43.067Z,100187.11
2022-08-23T10:56:15.629Z,100183.05
2022-08-23T11:01:44.247Z,100182.73
2022-08-23T11:06:55.550Z,100177.39
2022-08-23T11:12:23.668Z,100175.52
2022-08-23T11:17:48.382Z,100175.45
2022-08-23T11:22:57.411Z,100176.79
2022-08-23T11:28:22.127Z,100167.56
2022-08-23T11:33:31.492Z,100166.74
2022-08-23T11:38:49.337Z,100155.89
2022-08-23T11:44:07.825Z,100150.48
2022-08-23T11:49:28.927Z,100145.27
2022-08-23T11:54:56.832Z,100140.94
2022-08-23T12:00:28.633Z,100130.33
2022-08-23T12:05:35.411Z,100130.44
2022-08-23T12:10:38.073Z,100132.34
2022-08-23T12:16:16.917Z,100120.89
2022-08-23T12:21:43.987Z,100124.02
2022-08-23T12:27:11.429Z,100127.02
2022-08-23T12:32:37.917Z,100124.22
2022-08-23T12:37:56.881Z,100120.36
2022-08-23T12:43:23.112Z,100113.36
2022-08-23T12:48:30.216Z,100111.16
2022-08-23T12:53:38.520Z,100103.52
2022-08-23T12:58:52.515Z,100081.41
2022-08-23T13:04:06.321Z,100065.77
2022-08-23T13:09:22.659Z,100052.84
2022-08-23T13:14:26.733Z,100026.75
2022-08-23T13:19:34.118Z,100067.80
2022-08-23T13:24:40.422Z,100087.39
2022-08-23T13:29:52.317Z,100106.73
2022-08-23T13:34:56.710Z,100084.02
2022-08-23T13:40:14.281Z,100099.48
2022-08-23T13:45:25.532Z,100133.35
2022-08-23T13:50:35.291Z,100128.07
2022-08-23T13:55:46.461Z,100116.54
2022-08-23T14:00:55.303Z,100100.68
2022-08-23T14:05:58.386Z,100132.18
2022-08-23T14:11:01.492Z,100192.73
2022-08-23T14:21:32.327Z,100172.48
2022-08-23T14:26:35.302Z,100178.10
2022-08-23T14:31:38.245Z,100172.56
2022-08-23T14:38:00.239Z,100172.60
2022-08-23T14:42:07.989Z,100179.67
2022-08-23T14:47:11.529Z,100185.54
2022-08-23T14:52:15.626Z,100194.11
2022-08-23T14:57:18.418Z,100204.55
2022-08-23T15:02:24.823Z,100202.60
2022-08-23T15:07:27.762Z,100196.83
2022-08-23T15:17:57.627Z,100190.52
2022-08-23T15:23:01.012Z,100170.09
2022-08-23T15:28:12.204Z,100153.85
2022-08-23T15:33:16.040Z,100138.29
2022-08-23T15:38:22.968Z,100139.23
2022-08-23T15:43:34.104Z,100171.10
2022-08-23T15:48:44.736Z,100204.92
2022-08-23T15:53:47.877Z,100205.98
2022-08-23T15:58:54.114Z,100218.52
2022-08-23T16:03:57.562Z,100272.08
2022-08-23T16:09:00.871Z,100290.71
2022-08-23T16:14:03.901Z,100294.98
2022-08-23T16:19:08.918Z,100306.92
2022-08-23T16:24:12.028Z,100317.24
2022-08-23T16:29:18.222Z,100273.84
2022-08-23T16:34:21.061Z,100239.09
2022-08-23T16:39:24.475Z,100231.09
2022-08-23T16:44:28.590Z,100253.26
2022-08-23T16:49:34.378Z,100263.48
2022-08-23T16:54:37.993Z,100267.88
2022-08-23T16:59:40.796Z,100275.10
2022-08-23T17:04:43.507Z,100291.58
2022-08-23T17:09:47.221Z,100307.33
2022-08-23T17:14:51.512Z,100299.02
2022-08-23T17:19:54.312Z,100285.48
2022-08-23T17:24:57.616Z,100284.83
2022-08-23T17:30:00.835Z,100279.78
2022-08-23T17:35:03.871Z,100297.84
2022-08-23T17:40:10.840Z,100305.13
2022-08-23T17:45:16.538Z,100297.85
2022-08-23T17:50:20.780Z,100298.11
2022-08-23T17:55:24.853Z,100309.20
2022-08-23T18:00:28.726Z,100307.54
2022-08-23T18:05:33.398Z,100318.79
2022-08-23T18:10:36.671Z,100312.47
2022-08-23T18:15:39.657Z,100300.27
2022-08-23T18:20:42.399Z,100303.01
2022-08-23T18:25:45.922Z,100308.21
2022-08-23T18:30:54.730Z,100313.23
2022-08-23T18:35:57.530Z,100317.74
2022-08-23T18:41:00.273Z,100327.10
2022-08-23T18:46:03.121Z,100324.98
2022-08-23T18:51:16.301Z,100321.77
2022-08-23T18:56:21.283Z,100320.75
2022-08-23T19:01:26.757Z,100318.13
2022-08-23T19:06:30.344Z,100312.77
2022-08-23T19:11:33.653Z,100314.98
2022-08-23T19:16:37.249Z,100314.98
2022-08-23T19:21:40.267Z,100313.87
2022-08-23T19:26:47.793Z,100321.12
2022-08-23T19:31:50.768Z,100326.76
2022-08-23T19:37:00.778Z,100330.52
2022-08-23T19:42:11.458Z,100334.25
2022-08-23T19:47:17.693Z,100340.03
2022-08-23T19:52:23.046Z,100347.96
2022-08-23T19:57:28.110Z,100339.00
2022-08-23T20:02:30.982Z,100343.13
2022-08-23T20:07:36.326Z,100342.77
2022-08-23T20:12:39.389Z,100342.17
2022-08-23T20:17:42.312Z,100341.31
2022-08-23T20:23:04.169Z,100345.63
2022-08-23T20:28:08.384Z,100342.16
2022-08-23T20:33:11.139Z,100341.73
2022-08-23T20:38:32.753Z,100342.99
2022-08-23T20:43:39.152Z,100342.06
2022-08-23T20:48:41.952Z,100333.05
2022-08-23T20:53:45.677Z,100335.03
2022-08-23T20:58:48.493Z,100345.50
2022-08-23T21:03:52.425Z,100354.70
2022-08-23T21:08:57.981Z,100350.88
2022-08-23T21:14:00.955Z,100347.20
2022-08-23T21:19:03.921Z,100355.20
2022-08-23T21:24:08.937Z,100358.38
2022-08-23T21:29:11.941Z,100366.27
2022-08-23T21:34:15.179Z,100373.05
2022-08-23T21:39:17.980Z,100383.30
2022-08-23T21:44:21.396Z,100385.98
2022-08-23T21:49:24.222Z,100389.93
2022-08-23T21:54:27.295Z,100384.08
2022-08-23T21:59:30.088Z,100388.48
2022-08-23T22:04:33.000Z,100386.64
2022-08-23T22:09:36.144Z,100384.90
2022-08-23T22:14:39.030Z,100380.85
2022-08-23T22:19:41.766Z,100393.72
2022-08-23T22:24:44.531Z,100409.59
2022-08-23T22:29:47.562Z,100413.17
2022-08-23T22:34:50.367Z,100411.21
2022-08-23T22:39:56.388Z,100413.64
2022-08-23T22:45:00.353Z,100405.10
2022-08-23T22:50:04.643Z,100404.48
2022-08-23T22:55:08.375Z,100401.14
2022-08-23T23:00:13.693Z,100398.55
2022-08-23T23:05:16.496Z,100395.48
2022-08-23T23:10:19.357Z,100397.06
2022-08-23T23:15:22.463Z,100396.08
2022-08-23T23:20:39.330Z,100386.92
2022-08-23T23:25:42.953Z,100390.44
2022-08-23T23:30:48.642Z,100387.20
2022-08-23T23:35:54.334Z,100383.38
2022-08-23T23:40:57.088Z,100390.90
2022-08-23T23:46:05.023Z,100404.08
2022-08-23T23:51:13.212Z,100410.17
2022-08-23T23:56:17.771Z,100393.98
